createdAt,value
2018-04-25T00:00:07.351Z,936.10
2018-04-25T00:01:07.351Z,936.07
2018-04-25T00:02:07.356Z,936.07
2018-04-25T00:03:07.353Z,936.06
2018-04-25T00:04:07.355Z,936.06
2018-04-25T00:05:07.356Z,936.06
2018-04-25T00:06:07.357Z,936.01
2018-04-25T00:07:07.359Z,936.02
2018-04-25T00:08:07.359Z,936.01
2018-04-25T00:09:07.360Z,935.99
2018-04-25T00:10:07.360Z,935.97
2018-04-25T00:11:07.361Z,935.97
2018-04-25T00:12:07.363Z,935.98
2018-04-25T00:13:07.363Z,935.93
2018-04-25T00:14:07.363Z,935.93
2018-04-25T00:15:07.366Z,935.94
2018-04-25T00:16:07.366Z,935.88
2018-04-25T00:17:07.366Z,935.89
2018-04-25T00:18:07.368Z,935.89
2018-04-25T00:19:07.369Z,935.87
2018-04-25T00:20:07.369Z,935.89
2018-04-25T00:21:07.370Z,935.86
2018-04-25T00:22:07.371Z,935.81
2018-04-25T00:23:07.371Z,935.83
2018-04-25T00:25:07.374Z,935.82
2018-04-25T00:26:07.375Z,935.82
2018-04-25T00:27:07.375Z,935.84
2018-04-25T00:28:07.377Z,935.85
2018-04-25T00:29:07.377Z,935.82
2018-04-25T00:30:07.378Z,935.81
2018-04-25T00:31:07.379Z,935.78
2018-04-25T00:32:07.379Z,935.81
2018-04-25T00:33:07.381Z,935.79
2018-04-25T00:34:07.380Z,935.79
2018-04-25T00:35:07.382Z,935.74
2018-04-25T00:36:07.388Z,935.74
2018-04-25T00:37:07.382Z,935.75
2018-04-25T00:38:07.383Z,935.77
2018-04-25T00:39:07.385Z,935.75
2018-04-25T00:40:07.385Z,935.73
2018-04-25T00:41:07.384Z,935.73
2018-04-25T00:42:07.386Z,935.74
2018-04-25T00:43:07.387Z,935.75
2018-04-25T00:44:07.388Z,935.73
2018-04-25T00:45:07.388Z,935.73
2018-04-25T00:46:07.388Z,935.73
2018-04-25T00:47:07.389Z,935.76
2018-04-25T00:48:07.390Z,935.75
2018-04-25T00:49:07.393Z,935.67
2018-04-25T00:50:07.393Z,935.69
2018-04-25T00:51:07.392Z,935.69
2018-04-25T00:52:07.391Z,935.70
2018-04-25T00:53:07.392Z,935.71
2018-04-25T00:54:07.392Z,935.69
2018-04-25T00:55:07.395Z,935.67
2018-04-25T00:56:07.394Z,935.68
2018-04-25T00:57:07.398Z,935.67
2018-04-25T00:58:07.395Z,935.64
2018-04-25T00:59:07.399Z,935.65
2018-04-25T01:00:07.401Z,935.66
2018-04-25T01:01:07.398Z,935.61
2018-04-25T01:02:07.397Z,935.62
2018-04-25T01:03:07.398Z,935.66
2018-04-25T01:04:07.400Z,935.60
2018-04-25T01:05:07.399Z,935.60
2018-04-25T01:06:07.404Z,935.63
2018-04-25T01:07:07.400Z,935.64
2018-04-25T01:08:07.401Z,935.62
2018-04-25T01:09:07.471Z,935.61
2018-04-25T01:10:07.402Z,935.63
2018-04-25T01:11:07.402Z,935.65
2018-04-25T01:12:07.402Z,935.66
2018-04-25T01:13:07.403Z,935.60
2018-04-25T01:14:07.403Z,935.56
2018-04-25T01:15:07.403Z,935.60
2018-04-25T01:16:07.405Z,935.63
2018-04-25T01:17:07.405Z,935.62
2018-04-25T01:18:07.405Z,935.58
2018-04-25T01:19:07.405Z,935.60
2018-04-25T01:20:07.406Z,935.63
2018-04-25T01:21:07.406Z,935.60
2018-04-25T01:22:07.407Z,935.60
2018-04-25T01:23:07.407Z,935.61
2018-04-25T01:24:07.409Z,935.61
2018-04-25T01:25:07.407Z,935.64
2018-04-25T01:26:07.416Z,935.58
2018-04-25T01:27:07.409Z,935.55
2018-04-25T01:28:07.410Z,935.57
2018-04-25T01:29:07.414Z,935.60
2018-04-25T01:30:07.410Z,935.56
2018-04-25T01:31:07.411Z,935.59
2018-04-25T01:32:07.412Z,935.59
2018-04-25T01:33:07.409Z,935.57
2018-04-25T01:34:07.412Z,935.58
2018-04-25T01:35:07.411Z,935.58
2018-04-25T01:36:07.414Z,935.58
2018-04-25T01:37:07.413Z,935.63
2018-04-25T01:38:07.412Z,935.61
2018-04-25T01:39:07.414Z,935.57
2018-04-25T01:40:07.414Z,935.57
2018-04-25T01:41:07.414Z,935.57
2018-04-25T01:42:07.415Z,935.58
2018-04-25T01:43:07.414Z,935.58
2018-04-25T01:44:07.416Z,935.62
2018-04-25T01:45:07.415Z,935.59
2018-04-25T01:46:07.416Z,935.61
2018-04-25T01:47:07.418Z,935.55
2018-04-25T01:48:07.422Z,935.58
2018-04-25T01:49:07.417Z,935.60
2018-04-25T01:50:07.420Z,935.57
2018-04-25T01:51:07.418Z,935.54
2018-04-25T01:52:07.418Z,935.58
2018-04-25T01:53:07.426Z,935.59
2018-04-25T01:54:07.419Z,935.61
2018-04-25T01:55:07.420Z,935.60
2018-04-25T01:56:07.418Z,935.57
2018-04-25T01:57:07.419Z,935.56
2018-04-25T01:58:07.419Z,935.56
2018-04-25T01:59:07.422Z,935.61
2018-04-25T02:00:07.421Z,935.62
2018-04-25T02:01:07.420Z,935.63
2018-04-25T02:02:07.420Z,935.59
2018-04-25T02:03:07.421Z,935.61
2018-04-25T02:04:07.421Z,935.61
2018-04-25T02:05:07.420Z,935.58
2018-04-25T02:06:07.424Z,935.60
2018-04-25T02:07:07.422Z,935.61
2018-04-25T02:08:07.423Z,935.57
2018-04-25T02:09:07.422Z,935.59
2018-04-25T02:10:07.423Z,935.61
2018-04-25T02:11:07.422Z,935.54
2018-04-25T02:12:07.423Z,935.57
2018-04-25T02:13:07.423Z,935.56
2018-04-25T02:14:07.423Z,935.59
2018-04-25T02:15:07.423Z,935.60
2018-04-25T02:16:07.424Z,935.56
2018-04-25T02:17:07.423Z,935.56
2018-04-25T02:18:07.424Z,935.60
2018-04-25T02:19:07.424Z,935.58
2018-04-25T02:20:07.423Z,935.61
2018-04-25T02:21:07.423Z,935.58
2018-04-25T02:22:07.424Z,935.63
2018-04-25T02:23:07.427Z,935.60
2018-04-25T02:24:07.428Z,935.60
2018-04-25T02:25:07.423Z,935.66
2018-04-25T02:26:07.427Z,935.61
2018-04-25T02:27:07.425Z,935.63
2018-04-25T02:28:07.425Z,935.60
2018-04-25T02:29:07.424Z,935.60
2018-04-25T02:30:07.425Z,935.61
2018-04-25T02:31:07.425Z,935.61
2018-04-25T02:32:07.426Z,935.61
2018-04-25T02:33:07.424Z,935.64
2018-04-25T02:34:07.428Z,935.62
2018-04-25T02:35:07.427Z,935.62
2018-04-25T02:36:07.427Z,935.68
2018-04-25T02:37:07.426Z,935.67
2018-04-25T02:38:07.426Z,935.65
2018-04-25T02:39:07.427Z,935.63
2018-04-25T02:40:07.429Z,935.64
2018-04-25T02:41:07.428Z,935.64
2018-04-25T02:42:07.429Z,935.64
2018-04-25T02:43:07.429Z,935.71
2018-04-25T02:44:07.428Z,935.66
2018-04-25T02:45:07.429Z,935.68
2018-04-25T02:46:07.429Z,935.71
2018-04-25T02:47:07.432Z,935.68
2018-04-25T02:48:07.430Z,935.67
2018-04-25T02:49:07.429Z,935.67
2018-04-25T02:50:07.432Z,935.70
2018-04-25T02:51:07.432Z,935.70
2018-04-25T02:52:07.431Z,935.71
2018-04-25T02:53:07.434Z,935.68
2018-04-25T02:54:07.431Z,935.70
2018-04-25T02:55:07.434Z,935.71
2018-04-25T02:56:07.434Z,935.73
2018-04-25T02:57:07.431Z,935.71
2018-04-25T02:58:07.431Z,935.72
2018-04-25T02:59:07.434Z,935.75
2018-04-25T03:00:07.432Z,935.71
2018-04-25T03:01:07.433Z,935.70
2018-04-25T03:02:07.432Z,935.68
2018-04-25T03:03:07.432Z,935.71
2018-04-25T03:04:07.437Z,935.76
2018-04-25T03:05:07.433Z,935.75
2018-04-25T03:06:07.432Z,935.71
2018-04-25T03:07:07.434Z,935.76
2018-04-25T03:08:07.433Z,935.70
2018-04-25T03:09:07.433Z,935.75
2018-04-25T03:10:07.434Z,935.77
2018-04-25T03:11:07.435Z,935.75
2018-04-25T03:12:07.434Z,935.73
2018-04-25T03:13:07.432Z,935.78
2018-04-25T03:14:07.433Z,935.77
2018-04-25T03:15:07.435Z,935.80
2018-04-25T03:16:07.434Z,935.81
2018-04-25T03:17:07.434Z,935.81
2018-04-25T03:18:07.434Z,935.84
2018-04-25T03:19:07.438Z,935.85
2018-04-25T03:20:07.436Z,935.83
2018-04-25T03:21:07.434Z,935.82
2018-04-25T03:22:07.434Z,935.83
2018-04-25T03:23:07.434Z,935.83
2018-04-25T03:24:07.434Z,935.87
2018-04-25T03:25:07.433Z,935.88
2018-04-25T03:26:07.433Z,935.89
2018-04-25T03:27:07.433Z,935.91
2018-04-25T03:28:07.434Z,935.87
2018-04-25T03:29:07.434Z,935.86
2018-04-25T03:30:07.434Z,935.84
2018-04-25T03:31:07.434Z,935.84
2018-04-25T03:32:07.433Z,935.84
2018-04-25T03:33:07.432Z,935.81
2018-04-25T03:34:07.433Z,935.85
2018-04-25T03:35:07.433Z,935.89
2018-04-25T03:36:07.434Z,935.85
2018-04-25T03:37:07.433Z,935.81
2018-04-25T03:38:07.432Z,935.82
2018-04-25T03:39:07.432Z,935.86
2018-04-25T03:40:07.432Z,935.86
2018-04-25T03:41:07.489Z,935.87
2018-04-25T03:42:07.431Z,935.87
2018-04-25T03:43:07.432Z,935.86
2018-04-25T03:44:07.432Z,935.84
2018-04-25T03:45:07.433Z,935.89
2018-04-25T03:46:07.431Z,935.89
2018-04-25T03:47:07.431Z,935.86
2018-04-25T03:48:07.432Z,935.85
2018-04-25T03:49:07.429Z,935.88
2018-04-25T03:50:07.431Z,935.91
2018-04-25T03:51:07.430Z,935.91
2018-04-25T03:52:07.431Z,935.81
2018-04-25T03:53:07.429Z,935.80
2018-04-25T03:54:07.429Z,935.84
2018-04-25T03:55:07.432Z,935.84
2018-04-25T03:56:07.429Z,935.89
2018-04-25T03:57:07.432Z,935.93
2018-04-25T03:58:07.430Z,935.89
2018-04-25T03:59:07.484Z,935.86
2018-04-25T04:00:07.428Z,935.88
2018-04-25T04:01:07.429Z,935.92
2018-04-25T04:02:07.427Z,935.89
2018-04-25T04:03:07.427Z,935.87
2018-04-25T04:04:07.433Z,935.86
2018-04-25T04:05:07.427Z,935.84
2018-04-25T04:06:07.426Z,935.85
2018-04-25T04:07:07.426Z,935.83
2018-04-25T04:08:07.427Z,935.82
2018-04-25T04:09:07.429Z,935.86
2018-04-25T04:10:07.426Z,935.85
2018-04-25T04:11:07.426Z,935.85
2018-04-25T04:12:07.425Z,935.88
2018-04-25T04:13:07.425Z,935.87
2018-04-25T04:14:07.426Z,935.86
2018-04-25T04:15:07.425Z,935.88
2018-04-25T04:16:07.429Z,935.88
2018-04-25T04:17:07.424Z,935.93
2018-04-25T04:18:07.425Z,935.91
2018-04-25T04:19:07.426Z,935.92
2018-04-25T04:20:07.425Z,935.88
2018-04-25T04:21:07.423Z,935.89
2018-04-25T04:22:07.425Z,935.91
2018-04-25T04:23:07.424Z,935.95
2018-04-25T04:24:07.426Z,935.93
2018-04-25T04:25:07.424Z,935.94
2018-04-25T04:26:07.423Z,935.90
2018-04-25T04:27:07.426Z,935.88
2018-04-25T04:28:07.424Z,935.91
2018-04-25T04:29:07.423Z,935.94
2018-04-25T04:30:07.428Z,935.97
2018-04-25T04:31:07.422Z,935.93
2018-04-25T04:32:07.424Z,935.92
2018-04-25T04:33:07.423Z,935.93
2018-04-25T04:34:07.465Z,935.94
2018-04-25T04:35:07.425Z,935.96
2018-04-25T04:36:07.424Z,935.97
2018-04-25T04:37:07.422Z,936.01
2018-04-25T04:38:07.426Z,935.95
2018-04-25T04:39:07.424Z,936.00
2018-04-25T04:40:07.422Z,935.98
2018-04-25T04:41:07.424Z,936.00
2018-04-25T04:42:07.423Z,936.05
2018-04-25T04:43:07.481Z,936.00
2018-04-25T04:44:07.422Z,936.05
2018-04-25T04:45:07.426Z,936.04
2018-04-25T04:46:07.422Z,936.05
2018-04-25T04:47:07.423Z,936.08
2018-04-25T04:48:07.422Z,936.05
2018-04-25T04:49:07.420Z,936.10
2018-04-25T04:50:07.422Z,936.12
2018-04-25T04:51:07.423Z,936.17
2018-04-25T04:52:07.421Z,936.13
2018-04-25T04:53:07.422Z,936.14
2018-04-25T04:54:07.421Z,936.18
2018-04-25T04:55:07.421Z,936.18
2018-04-25T04:56:07.422Z,936.19
2018-04-25T04:57:07.424Z,936.20
2018-04-25T04:58:07.420Z,936.18
2018-04-25T04:59:07.420Z,936.24
2018-04-25T05:00:07.421Z,936.22
2018-04-25T05:01:07.420Z,936.20
2018-04-25T05:02:07.421Z,936.22
2018-04-25T05:03:07.422Z,936.27
2018-04-25T05:04:07.420Z,936.26
2018-04-25T05:05:07.417Z,936.25
2018-04-25T05:06:07.418Z,936.26
2018-04-25T05:07:07.419Z,936.21
2018-04-25T05:08:07.417Z,936.24
2018-04-25T05:09:07.417Z,936.25
2018-04-25T05:10:07.419Z,936.31
2018-04-25T05:11:07.417Z,936.27
2018-04-25T05:12:07.417Z,936.24
2018-04-25T05:13:07.490Z,936.31
2018-04-25T05:14:07.417Z,936.33
2018-04-25T05:15:07.418Z,936.22
2018-04-25T05:16:07.418Z,936.28
2018-04-25T05:17:07.421Z,936.27
2018-04-25T05:18:07.418Z,936.30
2018-04-25T05:19:07.418Z,936.28
2018-04-25T05:20:07.418Z,936.23
2018-04-25T05:21:07.417Z,936.23
2018-04-25T05:22:07.417Z,936.33
2018-04-25T05:23:07.418Z,936.40
2018-04-25T05:24:07.418Z,936.23
2018-04-25T05:25:07.417Z,936.24
2018-04-25T05:26:07.420Z,936.43
2018-04-25T05:27:07.418Z,936.43
2018-04-25T05:28:07.421Z,936.26
2018-04-25T05:29:07.418Z,936.22
2018-04-25T05:30:07.418Z,936.27
2018-04-25T05:31:07.419Z,936.36
2018-04-25T05:32:07.497Z,936.33
2018-04-25T05:33:07.418Z,936.26
2018-04-25T05:34:07.419Z,936.31
2018-04-25T05:35:07.423Z,936.33
2018-04-25T05:36:07.420Z,936.34
2018-04-25T05:37:07.420Z,936.33
2018-04-25T05:38:07.419Z,936.27
2018-04-25T05:39:07.420Z,936.35
2018-04-25T05:40:07.420Z,936.38
2018-04-25T05:41:07.418Z,936.31
2018-04-25T05:42:07.420Z,936.33
2018-04-25T05:43:07.421Z,936.42
2018-04-25T05:44:07.421Z,936.43
2018-04-25T05:45:07.421Z,936.32
2018-04-25T05:46:07.434Z,936.30
2018-04-25T05:47:07.422Z,936.35
2018-04-25T05:48:07.422Z,936.38
2018-04-25T05:49:07.422Z,936.45
2018-04-25T05:50:07.430Z,936.41
2018-04-25T05:51:07.424Z,936.45
2018-04-25T05:52:07.429Z,936.45
2018-04-25T05:53:07.424Z,936.44
2018-04-25T05:54:07.425Z,936.48
2018-04-25T05:55:07.426Z,936.47
2018-04-25T05:56:07.427Z,936.51
2018-04-25T05:57:07.426Z,936.50
2018-04-25T05:58:07.430Z,936.51
2018-04-25T05:59:07.428Z,936.50
2018-04-25T06:00:07.581Z,936.53
2018-04-25T06:01:07.505Z,936.54
2018-04-25T06:02:07.452Z,936.50
2018-04-25T06:03:07.431Z,936.54
2018-04-25T06:04:07.479Z,936.52
2018-04-25T06:05:07.546Z,936.52
2018-04-25T06:06:07.476Z,936.47
2018-04-25T06:07:07.502Z,936.51
2018-04-25T06:08:07.509Z,936.51
2018-04-25T06:09:07.435Z,936.50
2018-04-25T06:10:07.465Z,936.49
2018-04-25T06:11:07.470Z,936.47
2018-04-25T06:12:07.440Z,936.41
2018-04-25T06:13:07.440Z,936.46
2018-04-25T06:14:07.463Z,936.43
2018-04-25T06:15:07.443Z,936.40
2018-04-25T06:16:07.444Z,936.40
2018-04-25T06:17:07.446Z,936.44
2018-04-25T06:18:07.450Z,936.43
2018-04-25T06:19:07.449Z,936.42
2018-04-25T06:20:07.450Z,936.44
2018-04-25T06:21:07.453Z,936.42
2018-04-25T06:22:07.452Z,936.43
2018-04-25T06:23:07.454Z,936.42
2018-04-25T06:24:07.458Z,936.47
2018-04-25T06:25:07.456Z,936.44
2018-04-25T06:26:07.458Z,936.42
2018-04-25T06:27:07.459Z,936.47
2018-04-25T06:28:07.529Z,936.44
2018-04-25T06:29:07.467Z,936.46
2018-04-25T06:30:07.467Z,936.48
2018-04-25T06:31:07.466Z,936.48
2018-04-25T06:32:07.471Z,936.52
2018-04-25T06:33:07.470Z,936.46
2018-04-25T06:34:07.473Z,936.46
2018-04-25T06:35:07.475Z,936.47
2018-04-25T06:36:07.477Z,936.46
2018-04-25T06:37:07.483Z,936.44
2018-04-25T06:38:07.481Z,936.46
2018-04-25T06:39:07.483Z,936.47
2018-04-25T06:40:07.485Z,936.49
2018-04-25T06:41:07.487Z,936.49
2018-04-25T06:42:07.489Z,936.50
2018-04-25T06:43:07.491Z,936.45
2018-04-25T06:44:07.495Z,936.51
2018-04-25T06:45:07.548Z,936.60
2018-04-25T06:46:07.497Z,936.71
2018-04-25T06:47:07.521Z,936.80
2018-04-25T06:48:07.505Z,936.87
2018-04-25T06:49:07.507Z,936.92
2018-04-25T06:50:07.512Z,936.97
2018-04-25T06:51:07.517Z,936.90
2018-04-25T06:52:07.536Z,936.89
2018-04-25T06:53:07.529Z,936.93
2018-04-25T06:54:07.538Z,937.00
2018-04-25T06:55:07.546Z,936.97
2018-04-25T06:56:07.554Z,936.82
2018-04-25T06:57:07.562Z,936.78
2018-04-25T06:58:07.570Z,936.76
2018-04-25T06:59:07.578Z,936.76
2018-04-25T07:00:07.588Z,936.80
2018-04-25T07:01:07.597Z,936.79
2018-04-25T07:02:07.605Z,936.73
2018-04-25T07:03:07.616Z,936.74
2018-04-25T07:04:07.625Z,936.81
2018-04-25T07:05:07.633Z,936.82
2018-04-25T07:06:07.643Z,936.74
2018-04-25T07:07:07.655Z,936.68
2018-04-25T07:08:07.745Z,936.57
2018-04-25T07:09:07.670Z,936.48
2018-04-25T07:10:07.679Z,936.33
2018-04-25T07:11:07.688Z,936.36
2018-04-25T07:12:07.729Z,936.45
2018-04-25T07:13:07.704Z,936.43
2018-04-25T07:14:07.733Z,936.42
2018-04-25T07:15:07.721Z,936.44
2018-04-25T07:16:07.729Z,936.43
2018-04-25T07:17:07.736Z,936.41
2018-04-25T07:18:07.745Z,936.37
2018-04-25T07:19:07.753Z,936.30
2018-04-25T07:20:07.759Z,936.32
2018-04-25T07:21:07.767Z,936.27
2018-04-25T07:22:07.782Z,936.24
2018-04-25T07:23:07.783Z,936.21
2018-04-25T07:24:07.825Z,936.21
2018-04-25T07:25:07.898Z,936.21
2018-04-25T07:26:07.803Z,936.19
2018-04-25T07:27:07.811Z,936.17
2018-04-25T07:28:08.123Z,936.15
2018-04-25T07:29:07.825Z,936.14
2018-04-25T07:30:07.832Z,936.13
2018-04-25T07:31:08.109Z,936.12
2018-04-25T07:32:07.846Z,936.09
2018-04-25T07:33:07.853Z,936.10
2018-04-25T07:34:07.860Z,936.12
2018-04-25T07:35:08.621Z,936.07
2018-04-25T07:36:07.874Z,936.09
2018-04-25T07:37:08.172Z,936.09
2018-04-25T07:38:07.888Z,936.11
2018-04-25T07:39:07.896Z,936.09
2018-04-25T07:40:07.899Z,936.04
2018-04-25T07:41:08.249Z,936.02
2018-04-25T07:42:07.912Z,936.04
2018-04-25T07:43:07.918Z,936.03
2018-04-25T07:44:08.034Z,935.99
2018-04-25T07:45:07.931Z,936.03
2018-04-25T07:46:07.945Z,936.04
2018-04-25T07:47:07.944Z,935.98
2018-04-25T07:48:07.952Z,935.94
2018-04-25T07:49:07.959Z,935.95
2018-04-25T07:50:08.193Z,935.97
2018-04-25T07:51:07.978Z,935.97
2018-04-25T07:52:07.987Z,935.95
2018-04-25T07:53:07.988Z,935.94
2018-04-25T07:54:07.991Z,935.98
2018-04-25T07:55:07.997Z,935.95
2018-04-25T07:56:08.008Z,935.93
2018-04-25T07:57:08.012Z,935.96
2018-04-25T07:58:08.184Z,936.00
2018-04-25T07:59:08.025Z,936.01
2018-04-25T08:00:08.036Z,936.01
2018-04-25T08:01:08.041Z,936.04
2018-04-25T08:02:08.083Z,935.99
2018-04-25T08:03:08.098Z,936.02
2018-04-25T08:04:08.066Z,936.06
2018-04-25T08:05:08.074Z,936.05
2018-04-25T08:06:08.258Z,936.04
2018-04-25T08:07:08.091Z,936.03
2018-04-25T08:08:08.102Z,936.03
2018-04-25T08:09:08.113Z,936.03
2018-04-25T08:10:08.174Z,935.98
2018-04-25T08:11:08.203Z,936.01
2018-04-25T08:12:08.317Z,936.07
2018-04-25T08:13:08.245Z,936.03
2018-04-25T08:14:08.264Z,936.04
2018-04-25T08:15:08.175Z,936.03
2018-04-25T08:16:08.185Z,936.06
2018-04-25T08:17:08.275Z,936.12
2018-04-25T08:18:08.210Z,936.07
2018-04-25T08:19:08.220Z,936.02
2018-04-25T08:20:08.232Z,935.96
2018-04-25T08:21:08.242Z,936.01
2018-04-25T08:22:08.534Z,935.98
2018-04-25T08:23:08.267Z,936.03
2018-04-25T08:24:08.286Z,936.04
2018-04-25T08:25:08.293Z,936.01
2018-04-25T08:26:08.307Z,935.95
2018-04-25T08:27:08.320Z,935.97
2018-04-25T08:28:08.337Z,935.96
2018-04-25T08:29:08.351Z,935.92
2018-04-25T08:30:08.580Z,935.92
2018-04-25T08:31:08.372Z,935.93
2018-04-25T08:32:08.384Z,935.88
2018-04-25T08:33:08.396Z,935.87
2018-04-25T08:34:08.408Z,935.81
2018-04-25T08:35:08.479Z,935.85
2018-04-25T08:36:08.432Z,935.85
2018-04-25T08:37:08.442Z,935.83
2018-04-25T08:38:08.456Z,935.79
2018-04-25T08:39:08.469Z,935.81
2018-04-25T08:40:08.476Z,935.86
2018-04-25T08:41:08.487Z,935.81
2018-04-25T08:42:08.497Z,935.85
2018-04-25T08:43:08.509Z,935.83
2018-04-25T08:44:08.520Z,935.82
2018-04-25T08:45:08.556Z,935.88
2018-04-25T08:46:08.542Z,935.86
2018-04-25T08:47:08.552Z,935.81
2018-04-25T08:48:08.563Z,935.82
2018-04-25T08:49:08.575Z,935.83
2018-04-25T08:50:08.584Z,935.83
2018-04-25T08:51:08.596Z,935.86
2018-04-25T08:52:08.607Z,935.87
2018-04-25T08:53:08.616Z,935.84
2018-04-25T08:54:08.632Z,935.81
2018-04-25T08:55:08.663Z,935.79
2018-04-25T08:56:08.655Z,935.86
2018-04-25T08:57:08.668Z,935.82
2018-04-25T08:58:08.677Z,935.86
2018-04-25T08:59:09.005Z,935.88
2018-04-25T09:00:08.706Z,935.88
2018-04-25T09:01:08.719Z,935.82
2018-04-25T09:02:08.733Z,935.83
2018-04-25T09:03:08.746Z,935.90
2018-04-25T09:04:08.761Z,935.86
2018-04-25T09:05:08.775Z,935.86
2018-04-25T09:06:08.795Z,935.80
2018-04-25T09:07:08.805Z,935.77
2018-04-25T09:08:08.819Z,935.75
2018-04-25T09:09:08.832Z,935.69
2018-04-25T09:10:08.849Z,935.68
2018-04-25T09:11:08.864Z,935.68
2018-04-25T09:12:08.883Z,935.73
2018-04-25T09:13:08.893Z,935.72
2018-04-25T09:14:08.910Z,935.65
2018-04-25T09:15:08.927Z,935.69
2018-04-25T09:16:08.940Z,935.67
2018-04-25T09:17:08.955Z,935.65
2018-04-25T09:18:08.971Z,935.65
2018-04-25T09:19:08.987Z,935.60
2018-04-25T09:20:09.005Z,935.54
2018-04-25T09:21:09.017Z,935.54
2018-04-25T09:22:09.107Z,935.52
2018-04-25T09:23:09.053Z,935.52
2018-04-25T09:24:09.065Z,935.50
2018-04-25T09:25:09.081Z,935.52
2018-04-25T09:26:09.146Z,935.50
2018-04-25T09:27:09.408Z,935.53
2018-04-25T09:28:09.131Z,935.57
2018-04-25T09:29:09.143Z,935.57
2018-04-25T09:30:09.158Z,935.56
2018-04-25T09:31:09.178Z,935.56
2018-04-25T09:32:09.419Z,935.46
2018-04-25T09:33:09.207Z,935.43
2018-04-25T09:34:09.229Z,935.51
2018-04-25T09:35:09.243Z,935.46
2018-04-25T09:36:09.255Z,935.38
2018-04-25T09:37:09.269Z,935.37
2018-04-25T09:38:09.284Z,935.31
2018-04-25T09:39:09.300Z,935.36
2018-04-25T09:40:09.498Z,935.32
2018-04-25T09:41:09.329Z,935.36
2018-04-25T09:42:09.345Z,935.42
2018-04-25T09:43:09.360Z,935.35
2018-04-25T09:44:09.376Z,935.33
2018-04-25T09:45:09.389Z,935.34
2018-04-25T09:46:09.404Z,935.25
2018-04-25T09:47:09.420Z,935.37
2018-04-25T09:48:09.433Z,935.41
2018-04-25T09:49:09.447Z,935.39
2018-04-25T09:50:09.464Z,935.35
2018-04-25T09:51:09.477Z,935.33
2018-04-25T09:52:09.493Z,935.30
2018-04-25T09:53:09.512Z,935.19
2018-04-25T09:54:09.560Z,935.23
2018-04-25T09:55:09.536Z,935.17
2018-04-25T09:56:09.550Z,935.14
2018-04-25T09:57:09.563Z,935.12
2018-04-25T09:58:09.578Z,935.15
2018-04-25T09:59:09.591Z,935.08
2018-04-25T10:00:09.606Z,935.15
2018-04-25T10:01:09.620Z,935.04
2018-04-25T10:02:09.632Z,935.08
2018-04-25T10:03:09.646Z,935.14
2018-04-25T10:04:10.694Z,935.12
2018-04-25T10:05:09.882Z,935.12
2018-04-25T10:06:09.686Z,935.07
2018-04-25T10:07:09.699Z,935.05
2018-04-25T10:08:09.793Z,935.02
2018-04-25T10:09:09.727Z,935.00
2018-04-25T10:10:09.740Z,935.04
2018-04-25T10:11:09.754Z,934.95
2018-04-25T10:12:09.769Z,934.93
2018-04-25T10:13:09.781Z,934.98
2018-04-25T10:14:09.794Z,934.91
2018-04-25T10:15:09.817Z,934.87
2018-04-25T10:16:09.821Z,934.92
2018-04-25T10:17:09.879Z,934.95
2018-04-25T10:18:09.848Z,934.95
2018-04-25T10:19:09.859Z,934.96
2018-04-25T10:20:09.874Z,934.93
2018-04-25T10:21:09.923Z,934.93
2018-04-25T10:22:09.915Z,934.90
2018-04-25T10:23:09.983Z,934.83
2018-04-25T10:24:09.986Z,934.90
2018-04-25T10:25:09.974Z,934.83
2018-04-25T10:26:10.015Z,934.86
2018-04-25T10:27:10.090Z,934.83
2018-04-25T10:28:10.063Z,934.78
2018-04-25T10:29:10.060Z,934.76
2018-04-25T10:30:10.064Z,934.72
2018-04-25T10:31:10.054Z,934.74
2018-04-25T10:32:10.139Z,934.72
2018-04-25T10:33:10.043Z,934.77
2018-04-25T10:34:10.133Z,934.73
2018-04-25T10:35:10.069Z,934.70
2018-04-25T10:36:10.084Z,934.73
2018-04-25T10:37:10.096Z,934.75
2018-04-25T10:38:10.109Z,934.69
2018-04-25T10:39:10.122Z,934.74
2018-04-25T10:40:10.135Z,934.73
2018-04-25T10:41:10.147Z,934.75
2018-04-25T10:42:10.160Z,934.73
2018-04-25T10:43:10.179Z,934.72
2018-04-25T10:44:10.207Z,934.71
2018-04-25T10:45:10.199Z,934.70
2018-04-25T10:46:10.213Z,934.71
2018-04-25T10:47:10.670Z,934.70
2018-04-25T10:48:10.238Z,934.64
2018-04-25T10:49:10.249Z,934.58
2018-04-25T10:50:10.264Z,934.57
2018-04-25T10:51:10.303Z,934.60
2018-04-25T10:52:10.320Z,934.56
2018-04-25T10:53:10.302Z,934.54
2018-04-25T10:54:10.319Z,934.56
2018-04-25T10:55:10.328Z,934.56
2018-04-25T10:56:10.342Z,934.53
2018-04-25T10:57:10.354Z,934.53
2018-04-25T10:58:10.369Z,934.54
2018-04-25T10:59:10.379Z,934.47
2018-04-25T11:00:10.393Z,934.45
2018-04-25T11:01:10.406Z,934.49
2018-04-25T11:02:10.424Z,934.51
2018-04-25T11:03:10.434Z,934.50
2018-04-25T11:04:10.446Z,934.44
2018-04-25T11:05:10.460Z,934.46
2018-04-25T11:06:10.471Z,934.39
2018-04-25T11:07:10.487Z,934.38
2018-04-25T11:08:10.502Z,934.41
2018-04-25T11:09:10.513Z,934.40
2018-04-25T11:10:10.527Z,934.33
2018-04-25T11:11:10.540Z,934.36
2018-04-25T11:12:10.553Z,934.32
2018-04-25T11:13:10.567Z,934.28
2018-04-25T11:14:10.581Z,934.28
2018-04-25T11:15:10.595Z,934.27
2018-04-25T11:16:10.610Z,934.27
2018-04-25T11:17:10.621Z,934.22
2018-04-25T11:18:10.635Z,934.24
2018-04-25T11:19:10.649Z,934.21
2018-04-25T11:20:10.663Z,934.25
2018-04-25T11:21:10.675Z,934.21
2018-04-25T11:22:10.689Z,934.20
2018-04-25T11:23:10.711Z,934.23
2018-04-25T11:24:10.716Z,934.22
2018-04-25T11:25:12.045Z,934.19
2018-04-25T11:26:10.741Z,934.21
2018-04-25T11:27:10.756Z,934.22
2018-04-25T11:28:10.769Z,934.23
2018-04-25T11:29:10.783Z,934.18
2018-04-25T11:30:10.796Z,934.14
2018-04-25T11:31:10.811Z,934.22
2018-04-25T11:32:10.823Z,934.17
2018-04-25T11:33:10.837Z,934.16
2018-04-25T11:34:10.850Z,934.14
2018-04-25T11:35:10.864Z,934.13
2018-04-25T11:36:10.876Z,934.14
2018-04-25T11:37:10.889Z,934.17
2018-04-25T11:38:10.902Z,934.15
2018-04-25T11:39:10.916Z,934.10
2018-04-25T11:40:12.347Z,934.10
2018-04-25T11:41:11.037Z,934.11
2018-04-25T11:42:10.956Z,934.11
2018-04-25T11:43:10.970Z,934.09
2018-04-25T11:44:10.983Z,934.05
2018-04-25T11:45:10.994Z,934.05
2018-04-25T11:46:11.009Z,934.03
2018-04-25T11:47:11.115Z,934.02
2018-04-25T11:48:11.037Z,934.06
2018-04-25T11:49:11.055Z,934.08
2018-04-25T11:50:11.061Z,934.08
2018-04-25T11:51:11.074Z,934.09
2018-04-25T11:52:11.088Z,934.06
2018-04-25T11:53:11.100Z,934.08
2018-04-25T11:54:11.113Z,934.12
2018-04-25T11:55:11.126Z,934.15
2018-04-25T11:56:11.143Z,934.12
2018-04-25T11:57:11.151Z,934.18
2018-04-25T11:58:11.165Z,934.14
2018-04-25T11:59:11.179Z,934.16
2018-04-25T12:00:11.192Z,934.10
2018-04-25T12:01:11.204Z,934.09
2018-04-25T12:02:11.221Z,934.10
2018-04-25T12:03:11.231Z,934.13
2018-04-25T12:04:11.383Z,934.14
2018-04-25T12:05:11.256Z,934.14
2018-04-25T12:06:11.268Z,934.12
2018-04-25T12:07:11.281Z,934.12
2018-04-25T12:08:11.295Z,934.05
2018-04-25T12:09:11.548Z,934.07
2018-04-25T12:10:11.318Z,934.04
2018-04-25T12:11:11.332Z,934.07
2018-04-25T12:12:11.344Z,934.08
2018-04-25T12:13:11.376Z,934.14
2018-04-25T12:14:11.369Z,934.10
2018-04-25T12:15:11.386Z,934.07
2018-04-25T12:16:11.394Z,934.08
2018-04-25T12:17:11.405Z,934.10
2018-04-25T12:18:11.419Z,934.09
2018-04-25T12:19:11.436Z,934.08
2018-04-25T12:20:11.444Z,934.10
2018-04-25T12:21:11.455Z,934.07
2018-04-25T12:22:11.468Z,934.04
2018-04-25T12:23:11.481Z,934.14
2018-04-25T12:24:11.495Z,934.03
2018-04-25T12:25:11.508Z,934.08
2018-04-25T12:26:11.534Z,934.11
2018-04-25T12:27:11.785Z,934.08
2018-04-25T12:28:11.540Z,934.05
2018-04-25T12:29:11.554Z,934.08